Impacts METAR Board
IDs:

KLHB - Hearne Muni, TX, US

Updated at: 1700 UTC 16 Oct 2021
Potential Impact None Slight Moderate High
Time 16/05Z 16/06Z 16/07Z 16/08Z 16/09Z 16/10Z 16/11Z 16/12Z 16/13Z 16/14Z 16/15Z 16/16Z 16/17Z
Temp64 60 59 58 56 54 53 53 50 56 63 68 69
Dewpt51 51 49 48 48 47 47 47 47 49 49 47 42
Altim30.22 30.23 30.25 30.26 30.26 30.28 30.29 30.31 30.34 30.36 30.38 30.38 30.37
VIS10 10 10 10 10 10 10 10 10 10 10 10 10
CIG-- -- -- -- -- -- -- -- -- -- -- -- --
CoverCLRCLRCLRCLRCLRCLRCLRCLRCLRCLRCLRCLRCLR
FltCatVFRVFRVFRVFRVFRVFRVFRVFRVFRVFRVFRVFRVFR
WX--------------------------
WDir3503503503503403500000301010
WSpd6 3 6 7 5 4 0 0 0 0 3 9 15
WGst-- -- -- -- -- -- -- -- -- -- -- -- 20
Raw hourly METARs
KLHB 160455Z AUTO 35006KT 10SM CLR 18/11 A3022 RMK AO2 T01760106
KLHB 160555Z AUTO 35003KT 10SM CLR 16/11 A3023 RMK AO2 T01560105 10234 20156 403060156
KLHB 160655Z AUTO 35006KT 10SM CLR 15/10 A3025 RMK AO2 T01490097
KLHB 160755Z AUTO 35007KT 10SM CLR 14/09 A3026 RMK AO2 T01440090
KLHB 160855Z AUTO 34005KT 10SM CLR 14/09 A3026 RMK AO2 T01350088
KLHB 160955Z AUTO 35004KT 10SM CLR 12/09 A3028 RMK AO2 T01240085
KLHB 161055Z AUTO 00000KT 10SM CLR 12/08 A3029 RMK AO2 T01170083
KLHB 161155Z AUTO 00000KT 10SM CLR 12/09 A3031 RMK AO2 T01150085 10157 20113
KLHB 161255Z AUTO 00000KT 10SM CLR 10/09 A3034 RMK AO2 T01020085
KLHB 161355Z AUTO 00000KT 10SM CLR 13/10 A3036 RMK AO2 T01320096
KLHB 161455Z AUTO 03003KT 10SM CLR 17/10 A3038 RMK AO2 T01710096
KLHB 161555Z AUTO 01009KT 10SM CLR 20/08 A3038 RMK AO2 T02000084
KLHB 161655Z AUTO 01015G20KT 10SM CLR 21/06 A3037 RMK AO2 T02060057